createdAt,value
2022-09-21T00:01:09.616Z,9.23
2022-09-21T00:03:12.959Z,9.17
2022-09-21T00:05:17.096Z,9.09
2022-09-21T00:07:20.108Z,9.04
2022-09-21T00:09:23.129Z,8.97
2022-09-21T00:11:29.477Z,8.95
2022-09-21T00:13:33.114Z,8.89
2022-09-21T00:15:36.186Z,8.85
2022-09-21T00:17:39.239Z,8.85
2022-09-21T00:19:42.479Z,8.85
2022-09-21T00:21:45.413Z,8.88
2022-09-21T00:23:48.647Z,8.90
2022-09-21T00:25:51.783Z,8.91
2022-09-21T00:27:56.635Z,8.94
2022-09-21T00:30:00.804Z,8.94
2022-09-21T00:32:03.798Z,8.91
2022-09-21T00:34:08.014Z,8.86
2022-09-21T00:36:12.900Z,8.81
2022-09-21T00:38:15.826Z,8.76
2022-09-21T00:40:18.929Z,8.67
2022-09-21T00:42:23.666Z,8.58
2022-09-21T00:44:34.623Z,8.51
2022-09-21T00:46:39.034Z,8.46
2022-09-21T00:48:42.842Z,8.46
2022-09-21T00:50:50.511Z,8.46
2022-09-21T00:52:55.335Z,8.45
2022-09-21T00:55:04.903Z,8.45
2022-09-21T00:57:08.574Z,8.47
2022-09-21T00:59:13.494Z,8.49
2022-09-21T01:01:18.695Z,8.49
2022-09-21T01:03:21.790Z,8.47
2022-09-21T01:05:25.056Z,8.42
2022-09-21T01:07:29.277Z,8.38
2022-09-21T01:09:32.777Z,8.35
2022-09-21T01:11:42.247Z,8.34
2022-09-21T01:13:55.774Z,8.32
2022-09-21T01:16:03.244Z,8.27
2022-09-21T01:18:14.138Z,8.25
2022-09-21T01:20:49.866Z,8.20
2022-09-21T01:23:04.008Z,8.18
2022-09-21T01:25:13.639Z,8.19
2022-09-21T01:27:47.444Z,8.22
2022-09-21T01:29:53.146Z,8.22
2022-09-21T01:32:00.116Z,8.22
2022-09-21T01:34:07.724Z,8.26
2022-09-21T01:36:14.121Z,8.30
2022-09-21T01:38:20.591Z,8.30
2022-09-21T01:40:35.403Z,8.27
2022-09-21T01:42:40.422Z,8.22
2022-09-21T01:44:44.726Z,8.19
2022-09-21T01:46:49.933Z,8.16
2022-09-21T01:48:55.038Z,8.16
2022-09-21T01:50:59.125Z,8.16
2022-09-21T01:53:05.978Z,8.15
2022-09-21T01:55:12.175Z,8.12
2022-09-21T01:57:20.337Z,8.06
2022-09-21T01:59:27.857Z,8.01
2022-09-21T02:01:33.444Z,7.98
2022-09-21T02:03:39.491Z,7.97
2022-09-21T02:05:43.009Z,7.89
2022-09-21T02:07:46.334Z,7.84
2022-09-21T02:09:49.404Z,7.79
2022-09-21T02:11:52.312Z,7.77
2022-09-21T02:13:56.301Z,7.77
2022-09-21T02:16:07.037Z,7.81
2022-09-21T02:18:16.350Z,7.81
2022-09-21T02:20:22.090Z,7.82
2022-09-21T02:22:32.149Z,7.83
2022-09-21T02:24:41.213Z,7.84
2022-09-21T02:26:48.184Z,7.83
2022-09-21T02:28:54.134Z,7.80
2022-09-21T02:31:00.883Z,7.81
2022-09-21T02:33:11.417Z,7.83
2022-09-21T02:35:17.399Z,7.84
2022-09-21T02:37:24.617Z,7.82
2022-09-21T02:39:33.442Z,7.83
2022-09-21T02:41:41.348Z,7.80
2022-09-21T02:43:47.127Z,7.77
2022-09-21T02:45:54.009Z,7.76
2022-09-21T02:48:00.787Z,7.73
2022-09-21T02:50:06.879Z,7.72
2022-09-21T02:52:12.569Z,7.74
2022-09-21T02:54:18.775Z,7.76
2022-09-21T02:56:22.535Z,7.76
2022-09-21T02:58:27.130Z,7.74
2022-09-21T03:00:30.454Z,7.70
2022-09-21T03:02:38.038Z,7.66
2022-09-21T03:04:41.617Z,7.63
2022-09-21T03:06:44.648Z,7.61
2022-09-21T03:08:47.635Z,7.57
2022-09-21T03:10:52.164Z,7.55
2022-09-21T03:12:59.338Z,7.56
2022-09-21T03:15:02.282Z,7.58
2022-09-21T03:17:05.559Z,7.56
2022-09-21T03:19:08.960Z,7.54
2022-09-21T03:21:12.185Z,7.54
2022-09-21T03:23:15.550Z,7.52
2022-09-21T03:25:18.487Z,7.51
2022-09-21T03:27:22.947Z,7.48
2022-09-21T03:29:25.912Z,7.48
2022-09-21T03:31:28.905Z,7.47
2022-09-21T03:33:31.970Z,7.47
2022-09-21T03:35:35.570Z,7.47
2022-09-21T03:37:41.331Z,7.49
2022-09-21T03:39:47.237Z,7.49
2022-09-21T03:41:50.709Z,7.47
2022-09-21T03:43:55.049Z,7.44
2022-09-21T03:46:00.914Z,7.44
2022-09-21T03:48:04.295Z,7.43
2022-09-21T03:50:10.173Z,7.46
2022-09-21T03:52:13.351Z,7.46
2022-09-21T03:54:16.409Z,7.40
2022-09-21T03:56:19.494Z,7.35
2022-09-21T03:58:22.437Z,7.32
2022-09-21T04:00:26.855Z,7.30
2022-09-21T04:02:29.932Z,7.26
2022-09-21T04:04:32.895Z,7.23
2022-09-21T04:06:36.154Z,7.21
2022-09-21T04:08:39.191Z,7.18
2022-09-21T04:10:43.258Z,7.14
2022-09-21T04:12:46.896Z,7.11
2022-09-21T04:14:50.329Z,7.06
2022-09-21T04:16:54.679Z,7.06
2022-09-21T04:18:57.662Z,7.09
2022-09-21T04:21:00.630Z,7.07
2022-09-21T04:23:03.550Z,7.06
2022-09-21T04:25:07.461Z,7.08
2022-09-21T04:27:11.297Z,7.10
2022-09-21T04:29:14.601Z,7.11
2022-09-21T04:31:17.746Z,7.08
2022-09-21T04:33:22.374Z,7.06
2022-09-21T04:35:25.286Z,7.03
2022-09-21T04:37:28.289Z,7.03
2022-09-21T04:39:31.195Z,6.98
2022-09-21T04:41:34.253Z,6.96
2022-09-21T04:43:37.368Z,6.95
2022-09-21T04:45:40.582Z,6.95
2022-09-21T04:47:43.465Z,6.97
2022-09-21T04:49:47.840Z,6.99
2022-09-21T04:51:51.388Z,6.99
2022-09-21T04:53:54.378Z,7.00
2022-09-21T04:55:57.448Z,7.01
2022-09-21T04:58:00.802Z,7.01
2022-09-21T05:00:04.588Z,7.00
2022-09-21T05:02:07.583Z,7.00
2022-09-21T05:04:10.495Z,6.99
2022-09-21T05:06:15.045Z,6.97
2022-09-21T05:08:38.613Z,6.96
2022-09-21T05:10:40.695Z,6.94
2022-09-21T05:12:43.829Z,6.92
2022-09-21T05:14:46.818Z,6.88
2022-09-21T05:16:50.413Z,6.87
2022-09-21T05:18:54.916Z,6.86
2022-09-21T05:20:58.383Z,6.85
2022-09-21T05:23:03.298Z,6.83
2022-09-21T05:25:07.636Z,6.83
2022-09-21T05:27:10.555Z,6.83
2022-09-21T05:29:14.098Z,6.84
2022-09-21T05:31:39.379Z,6.82
2022-09-21T05:33:45.893Z,6.82
2022-09-21T05:35:59.721Z,6.84
2022-09-21T05:38:09.049Z,6.84
2022-09-21T05:40:13.537Z,6.85
2022-09-21T05:42:17.035Z,6.87
2022-09-21T05:44:21.568Z,6.90
2022-09-21T05:46:34.852Z,6.95
2022-09-21T05:48:40.462Z,7.03
2022-09-21T05:50:51.082Z,7.09
2022-09-21T05:53:05.278Z,7.16
2022-09-21T05:55:13.634Z,7.23
2022-09-21T05:57:20.804Z,7.26
2022-09-21T05:59:40.551Z,7.30
2022-09-21T06:01:55.506Z,7.31
2022-09-21T06:03:59.674Z,7.35
2022-09-21T06:06:02.983Z,7.45
2022-09-21T06:08:07.354Z,7.54
2022-09-21T06:10:11.803Z,7.65
2022-09-21T06:12:14.764Z,7.75
2022-09-21T06:14:24.460Z,7.86
2022-09-21T06:16:27.421Z,8.00
2022-09-21T06:18:30.507Z,8.11
2022-09-21T06:20:33.494Z,8.22
2022-09-21T06:22:36.836Z,8.31
2022-09-21T06:24:41.143Z,8.40
2022-09-21T06:26:44.075Z,8.49
2022-09-21T06:28:47.074Z,8.63
2022-09-21T06:30:52.090Z,8.80
2022-09-21T06:32:55.065Z,8.98
2022-09-21T06:34:58.034Z,9.14
2022-09-21T06:37:01.030Z,9.36
2022-09-21T06:39:04.082Z,9.66
2022-09-21T06:41:08.431Z,9.86
2022-09-21T06:43:11.520Z,10.10
2022-09-21T06:45:14.677Z,10.28
2022-09-21T06:47:18.064Z,10.36
2022-09-21T06:49:21.287Z,10.44
2022-09-21T06:51:24.217Z,10.57
2022-09-21T06:53:27.408Z,10.75
2022-09-21T06:55:30.589Z,10.96
2022-09-21T06:57:35.091Z,11.10
2022-09-21T06:59:38.094Z,11.31
2022-09-21T07:01:41.302Z,11.40
2022-09-21T07:06:27.427Z,11.82
2022-09-21T07:10:53.383Z,12.14
2022-09-21T07:12:57.631Z,12.23
2022-09-21T07:15:00.674Z,12.40
2022-09-21T07:17:03.621Z,12.55
2022-09-21T07:19:13.830Z,12.64
2022-09-21T07:21:17.259Z,12.77
2022-09-21T07:23:22.334Z,12.86
2022-09-21T07:25:25.542Z,13.00
2022-09-21T07:27:30.290Z,13.10
2022-09-21T07:29:34.603Z,13.19
2022-09-21T07:31:37.606Z,13.24
2022-09-21T07:33:40.947Z,13.40
2022-09-21T07:35:51.796Z,13.58
2022-09-21T07:37:56.456Z,13.79
2022-09-21T07:39:59.709Z,13.94
2022-09-21T07:42:02.699Z,14.06
2022-09-21T07:44:06.119Z,14.18
2022-09-21T07:46:12.020Z,14.23
2022-09-21T07:48:14.992Z,14.43
2022-09-21T07:50:18.121Z,14.54
2022-09-21T07:52:21.285Z,14.60
2022-09-21T07:54:24.214Z,14.72
2022-09-21T07:56:27.257Z,14.73
2022-09-21T07:58:53.095Z,14.88
2022-09-21T08:00:56.201Z,15.11
2022-09-21T08:03:01.222Z,15.23
2022-09-21T08:05:04.774Z,15.41
2022-09-21T08:07:08.238Z,15.46
2022-09-21T08:09:11.248Z,15.58
2022-09-21T08:11:14.491Z,15.64
2022-09-21T08:13:17.431Z,15.74
2022-09-21T08:15:43.901Z,15.91
2022-09-21T08:17:43.413Z,16.02
2022-09-21T08:19:48.114Z,16.12
2022-09-21T08:21:56.238Z,16.26
2022-09-21T08:24:00.422Z,16.44
2022-09-21T08:26:05.466Z,16.50
2022-09-21T08:28:10.045Z,16.55
2022-09-21T08:30:13.705Z,16.62
2022-09-21T08:32:39.468Z,16.77
2022-09-21T08:34:39.658Z,16.94
2022-09-21T08:36:44.025Z,17.04
2022-09-21T08:38:48.077Z,17.14
2022-09-21T08:40:51.213Z,17.25
2022-09-21T08:42:59.200Z,17.35
2022-09-21T08:45:06.410Z,17.29
2022-09-21T08:47:13.302Z,17.21
2022-09-21T08:49:18.723Z,17.20
2022-09-21T08:51:23.857Z,17.16
2022-09-21T08:53:32.338Z,17.24
2022-09-21T08:55:35.380Z,17.42
2022-09-21T08:57:38.556Z,17.45
2022-09-21T08:59:44.009Z,17.48
2022-09-21T09:01:55.875Z,17.60
2022-09-21T09:04:16.165Z,17.77
2022-09-21T09:06:26.918Z,17.97
2022-09-21T09:08:54.734Z,17.93
2022-09-21T09:11:07.050Z,17.93
2022-09-21T09:13:27.657Z,17.95
2022-09-21T09:15:39.301Z,17.96
2022-09-21T09:17:50.588Z,18.02
2022-09-21T09:19:57.552Z,18.17
2022-09-21T09:22:03.529Z,18.03
2022-09-21T09:24:11.596Z,17.92
2022-09-21T09:26:19.371Z,18.04
2022-09-21T09:28:28.273Z,18.18
2022-09-21T09:30:35.252Z,18.36
2022-09-21T09:32:42.523Z,18.37
2022-09-21T09:34:50.371Z,18.41
2022-09-21T09:37:00.133Z,18.53
2022-09-21T09:39:05.976Z,18.45
2022-09-21T09:41:34.844Z,18.24
2022-09-21T09:43:47.129Z,18.26
2022-09-21T09:45:58.837Z,18.14
2022-09-21T09:48:10.947Z,18.09
2022-09-21T09:50:21.733Z,18.03
2022-09-21T09:52:24.892Z,18.20
2022-09-21T09:54:28.996Z,18.18
2022-09-21T09:56:33.931Z,17.95
2022-09-21T09:58:42.834Z,17.85
2022-09-21T10:00:47.400Z,17.85
2022-09-21T10:02:52.299Z,17.81
2022-09-21T10:05:03.807Z,17.62
2022-09-21T10:07:06.884Z,17.38
2022-09-21T10:09:21.657Z,17.18
2022-09-21T10:11:37.570Z,17.15
2022-09-21T10:13:41.629Z,17.41
2022-09-21T10:15:49.174Z,17.68
2022-09-21T10:17:59.611Z,17.62
2022-09-21T10:20:03.914Z,17.39
2022-09-21T10:22:07.332Z,17.27
2022-09-21T10:24:20.174Z,17.22
2022-09-21T10:26:23.277Z,17.25
2022-09-21T10:28:28.411Z,17.49
2022-09-21T10:30:38.458Z,17.72
2022-09-21T10:32:56.365Z,17.98
2022-09-21T10:35:18.236Z,18.19
2022-09-21T10:37:34.008Z,18.30
2022-09-21T10:39:37.299Z,18.25
2022-09-21T10:41:40.395Z,18.17
2022-09-21T10:43:45.232Z,18.24
2022-09-21T10:45:54.649Z,18.24
2022-09-21T10:47:59.990Z,17.93
2022-09-21T10:50:04.483Z,17.65
2022-09-21T10:52:07.517Z,17.35
2022-09-21T10:54:11.217Z,17.27
2022-09-21T10:56:18.757Z,17.21
2022-09-21T10:58:22.086Z,17.04
2022-09-21T11:00:35.616Z,16.91
2022-09-21T11:02:39.621Z,17.03
2022-09-21T11:04:44.817Z,17.22
2022-09-21T11:06:49.952Z,17.13
2022-09-21T11:08:56.544Z,17.28
2022-09-21T11:11:09.943Z,17.45
2022-09-21T11:13:23.353Z,17.31
2022-09-21T11:15:43.308Z,17.43
2022-09-21T11:17:49.404Z,17.65
2022-09-21T11:19:57.298Z,17.61
2022-09-21T11:22:03.317Z,17.42
2022-09-21T11:24:18.234Z,17.28
2022-09-21T11:26:26.498Z,17.10
2022-09-21T11:28:33.545Z,17.06
2022-09-21T11:30:53.666Z,17.14
2022-09-21T11:33:07.661Z,17.31
2022-09-21T11:35:25.013Z,17.31
2022-09-21T11:37:42.169Z,17.16
2022-09-21T11:39:57.356Z,17.00
2022-09-21T11:42:14.243Z,16.92
2022-09-21T11:44:25.434Z,16.85
2022-09-21T11:46:35.238Z,16.82
2022-09-21T11:48:54.404Z,16.95
2022-09-21T11:51:09.374Z,17.13
2022-09-21T11:53:22.605Z,17.14
2022-09-21T11:55:52.525Z,17.34
2022-09-21T11:58:00.371Z,17.53
2022-09-21T12:00:16.035Z,17.54
2022-09-21T12:02:33.297Z,17.46
2022-09-21T12:04:44.467Z,17.53
2022-09-21T12:06:56.669Z,17.63
2022-09-21T12:09:11.658Z,17.74
2022-09-21T12:11:25.773Z,17.75
2022-09-21T12:13:36.213Z,17.69
2022-09-21T12:15:44.013Z,17.69
2022-09-21T12:17:56.000Z,17.70
2022-09-21T12:20:04.833Z,17.72
2022-09-21T12:22:09.552Z,17.64
2022-09-21T12:24:16.299Z,17.46
2022-09-21T12:26:22.160Z,17.44
2022-09-21T12:28:28.260Z,17.52
2022-09-21T12:30:32.992Z,17.54
2022-09-21T12:32:49.419Z,17.63
2022-09-21T12:34:57.499Z,17.70
2022-09-21T12:37:07.555Z,17.79
2022-09-21T12:39:14.885Z,17.85
2022-09-21T12:41:21.451Z,17.97
2022-09-21T12:43:31.860Z,17.98
2022-09-21T12:45:39.174Z,17.82
2022-09-21T12:47:50.248Z,17.71
2022-09-21T12:49:58.805Z,17.62
2022-09-21T12:52:06.855Z,17.51
2022-09-21T12:54:17.340Z,17.44
2022-09-21T12:56:28.487Z,17.47
2022-09-21T12:58:45.695Z,17.48
2022-09-21T13:00:56.497Z,17.49
2022-09-21T13:03:07.094Z,17.47
2022-09-21T13:05:18.008Z,17.43
2022-09-21T13:07:41.012Z,17.46
2022-09-21T13:09:46.295Z,17.57
2022-09-21T13:11:53.937Z,17.54
2022-09-21T13:13:59.346Z,17.62
2022-09-21T13:16:04.456Z,17.63
2022-09-21T13:18:16.744Z,17.61
2022-09-21T13:20:22.004Z,17.63
2022-09-21T13:22:26.188Z,17.59
2022-09-21T13:24:31.437Z,17.64
2022-09-21T13:26:36.887Z,17.70
2022-09-21T13:29:04.815Z,17.75
2022-09-21T13:31:40.553Z,17.82
2022-09-21T13:34:20.926Z,17.82
2022-09-21T13:36:35.284Z,17.80
2022-09-21T13:39:13.692Z,17.81
2022-09-21T13:41:45.515Z,17.84
2022-09-21T13:44:04.973Z,17.88
2022-09-21T13:46:08.751Z,17.90
2022-09-21T13:48:19.909Z,17.87
2022-09-21T13:50:27.473Z,17.87
2022-09-21T13:52:39.414Z,17.86
2022-09-21T13:54:49.941Z,17.87
2022-09-21T13:57:08.572Z,17.93
2022-09-21T13:59:22.413Z,17.97
2022-09-21T14:01:48.169Z,17.96
2022-09-21T14:03:53.931Z,17.88
2022-09-21T14:06:04.708Z,17.88
2022-09-21T14:08:22.566Z,17.85
2022-09-21T14:10:27.579Z,17.84
2022-09-21T14:12:35.852Z,17.85
2022-09-21T14:14:41.456Z,17.83
2022-09-21T14:16:55.791Z,17.84
2022-09-21T14:18:58.776Z,17.81
2022-09-21T14:21:21.145Z,17.76
2022-09-21T14:23:30.196Z,17.74
2022-09-21T14:25:52.125Z,17.69
2022-09-21T14:27:55.797Z,17.62
2022-09-21T14:30:06.235Z,17.66
2022-09-21T14:32:18.977Z,17.69
2022-09-21T14:34:25.784Z,17.69
2022-09-21T14:36:41.454Z,17.70
2022-09-21T14:38:53.402Z,17.71
2022-09-21T14:41:00.640Z,17.68
2022-09-21T14:43:09.805Z,17.70
2022-09-21T14:45:18.074Z,17.68
2022-09-21T14:47:30.712Z,17.67
2022-09-21T14:49:52.138Z,17.62
2022-09-21T14:52:12.852Z,17.54
2022-09-21T14:54:31.373Z,17.51
2022-09-21T14:56:45.040Z,17.45
2022-09-21T14:59:03.083Z,17.41
2022-09-21T15:01:36.407Z,17.38
2022-09-21T15:03:49.610Z,17.39
2022-09-21T15:05:56.883Z,17.37
2022-09-21T15:08:33.729Z,17.36
2022-09-21T15:10:57.147Z,17.37
2022-09-21T15:13:01.721Z,17.39
2022-09-21T15:15:20.163Z,17.38
2022-09-21T15:17:27.213Z,17.39
2022-09-21T15:19:34.626Z,17.42
2022-09-21T15:21:38.238Z,17.44
2022-09-21T15:23:42.579Z,17.46
2022-09-21T15:25:54.592Z,17.47
2022-09-21T15:27:57.821Z,17.50
2022-09-21T15:30:03.125Z,17.53
2022-09-21T15:32:07.436Z,17.56
2022-09-21T15:34:11.911Z,17.53
2022-09-21T15:36:15.101Z,17.46
2022-09-21T15:38:28.578Z,17.46
2022-09-21T15:40:34.634Z,17.40
2022-09-21T15:42:50.075Z,17.34
2022-09-21T15:45:06.014Z,17.23
2022-09-21T15:47:11.174Z,17.11
2022-09-21T15:49:15.448Z,17.12
2022-09-21T15:51:23.379Z,17.07
2022-09-21T15:53:30.258Z,17.04
2022-09-21T15:55:34.649Z,16.96
2022-09-21T15:57:40.460Z,16.89
2022-09-21T15:59:47.323Z,16.85
2022-09-21T16:01:52.222Z,16.80
2022-09-21T16:04:04.520Z,16.77
2022-09-21T16:06:25.921Z,16.76
2022-09-21T16:08:33.002Z,16.78
2022-09-21T16:10:40.417Z,16.76
2022-09-21T16:12:44.294Z,16.76
2022-09-21T16:14:59.665Z,16.72
2022-09-21T16:17:24.925Z,16.73
2022-09-21T16:19:41.254Z,16.72
2022-09-21T16:21:44.316Z,16.71
2022-09-21T16:23:48.076Z,16.71
2022-09-21T16:26:01.253Z,16.73
2022-09-21T16:28:07.099Z,16.72
2022-09-21T16:30:41.153Z,16.70
2022-09-21T16:32:48.116Z,16.68
2022-09-21T16:34:54.180Z,16.68
2022-09-21T16:36:57.247Z,16.65
2022-09-21T16:39:01.062Z,16.63
2022-09-21T16:41:05.666Z,16.62
2022-09-21T16:43:10.714Z,16.57
2022-09-21T16:45:19.943Z,16.57
2022-09-21T16:47:25.430Z,16.53
2022-09-21T16:49:31.153Z,16.49
2022-09-21T16:51:34.158Z,16.46
2022-09-21T16:53:37.396Z,16.42
2022-09-21T16:55:42.845Z,16.41
2022-09-21T16:57:48.126Z,16.39
2022-09-21T16:59:51.497Z,16.36
2022-09-21T17:01:56.711Z,16.33
2022-09-21T17:04:00.065Z,16.32
2022-09-21T17:06:03.035Z,16.31
2022-09-21T17:08:06.094Z,16.28
2022-09-21T17:10:12.535Z,16.26
2022-09-21T17:12:17.575Z,16.24
2022-09-21T17:14:22.183Z,16.21
2022-09-21T17:16:25.306Z,16.18
2022-09-21T17:18:29.122Z,16.15
2022-09-21T17:20:38.222Z,16.08
2022-09-21T17:22:41.261Z,16.04
2022-09-21T17:24:52.767Z,16.00
2022-09-21T17:26:55.817Z,15.97
2022-09-21T17:28:59.082Z,15.91
2022-09-21T17:31:09.522Z,15.85
2022-09-21T17:33:12.848Z,15.80
2022-09-21T17:35:19.098Z,15.74
2022-09-21T17:37:25.063Z,15.68
2022-09-21T17:39:28.235Z,15.58
2022-09-21T17:41:35.916Z,15.49
2022-09-21T17:43:41.213Z,15.41
2022-09-21T17:45:50.391Z,15.34
2022-09-21T17:47:55.632Z,15.25
2022-09-21T17:50:01.495Z,15.15
2022-09-21T17:52:22.400Z,15.06
2022-09-21T17:54:25.946Z,14.98
2022-09-21T17:56:40.633Z,14.93
2022-09-21T17:58:49.149Z,14.90
2022-09-21T18:00:59.486Z,14.84
2022-09-21T18:03:04.716Z,14.76
2022-09-21T18:05:17.099Z,14.68
2022-09-21T18:07:20.531Z,14.64
2022-09-21T18:09:24.243Z,14.54
2022-09-21T18:11:51.151Z,14.45
2022-09-21T18:13:59.512Z,14.24
2022-09-21T18:16:16.783Z,14.11
2022-09-21T18:18:31.458Z,14.02
2022-09-21T18:20:42.801Z,13.96
2022-09-21T18:22:52.983Z,13.87
2022-09-21T18:24:57.031Z,13.81
2022-09-21T18:27:00.726Z,13.76
2022-09-21T18:29:22.420Z,13.67
2022-09-21T18:31:42.163Z,13.61
2022-09-21T18:33:51.630Z,13.58
2022-09-21T18:36:02.286Z,13.49
2022-09-21T18:38:15.507Z,13.45
2022-09-21T18:40:23.309Z,13.44
2022-09-21T18:42:40.176Z,13.39
2022-09-21T18:44:48.073Z,13.33
2022-09-21T18:46:58.881Z,13.26
2022-09-21T18:49:08.312Z,13.23
2022-09-21T18:51:18.407Z,13.18
2022-09-21T18:53:25.473Z,13.07
2022-09-21T18:55:31.304Z,13.00
2022-09-21T18:57:35.090Z,12.96
2022-09-21T18:59:38.766Z,12.90
2022-09-21T19:01:42.663Z,12.85
2022-09-21T19:03:46.613Z,12.81
2022-09-21T19:06:01.387Z,12.78
2022-09-21T19:08:10.237Z,12.74
2022-09-21T19:10:16.421Z,12.73
2022-09-21T19:12:27.943Z,12.67
2022-09-21T19:14:37.536Z,12.62
2022-09-21T19:16:47.899Z,12.59
2022-09-21T19:19:00.914Z,12.56
2022-09-21T19:21:16.884Z,12.53
2022-09-21T19:23:29.517Z,12.49
2022-09-21T19:25:37.096Z,12.46
2022-09-21T19:27:44.996Z,12.36
2022-09-21T19:29:57.649Z,12.32
2022-09-21T19:32:00.936Z,12.29
2022-09-21T19:34:13.182Z,12.27
2022-09-21T19:36:17.938Z,12.20
2022-09-21T19:38:21.411Z,12.14
2022-09-21T19:40:26.667Z,12.10
2022-09-21T19:42:59.324Z,12.05
2022-09-21T19:45:08.505Z,12.03
2022-09-21T19:47:17.990Z,11.99
2022-09-21T19:49:22.274Z,11.97
2022-09-21T19:51:38.151Z,11.95
2022-09-21T19:53:59.106Z,11.92
2022-09-21T19:56:20.773Z,11.90
2022-09-21T19:58:42.023Z,11.88
2022-09-21T20:00:46.860Z,11.84
2022-09-21T20:03:00.280Z,11.82
2022-09-21T20:05:07.547Z,11.77
2022-09-21T20:07:19.002Z,11.76
2022-09-21T20:09:25.570Z,11.71
2022-09-21T20:11:37.883Z,11.67
2022-09-21T20:13:51.254Z,11.66
2022-09-21T20:15:59.927Z,11.61
2022-09-21T20:18:07.645Z,11.58
2022-09-21T20:20:15.806Z,11.53
2022-09-21T20:22:28.517Z,11.48
2022-09-21T20:24:34.696Z,11.43
2022-09-21T20:26:37.914Z,11.39
2022-09-21T20:28:41.551Z,11.34
2022-09-21T20:30:45.003Z,11.30
2022-09-21T20:32:51.430Z,11.27
2022-09-21T20:34:54.639Z,11.25
2022-09-21T20:36:57.675Z,11.25
2022-09-21T20:39:04.110Z,11.21
2022-09-21T20:41:10.945Z,11.15
2022-09-21T20:43:15.759Z,11.12
2022-09-21T20:45:19.156Z,11.09
2022-09-21T20:47:22.270Z,11.05
2022-09-21T20:49:25.253Z,11.02
2022-09-21T20:51:28.413Z,10.99
2022-09-21T20:53:31.422Z,10.96
2022-09-21T20:55:35.793Z,10.93
2022-09-21T20:57:39.580Z,10.88
2022-09-21T20:59:42.756Z,10.86
2022-09-21T21:01:45.801Z,10.83
2022-09-21T21:03:48.976Z,10.82
2022-09-21T21:05:52.039Z,10.78
2022-09-21T21:07:54.980Z,10.72
2022-09-21T21:09:58.697Z,10.70
2022-09-21T21:12:03.419Z,10.67
2022-09-21T21:14:06.357Z,10.66
2022-09-21T21:16:12.114Z,10.63
2022-09-21T21:18:16.053Z,10.63
2022-09-21T21:20:19.402Z,10.60
2022-09-21T21:22:22.365Z,10.58
2022-09-21T21:24:44.093Z,10.57
2022-09-21T21:27:03.285Z,10.56
2022-09-21T21:29:07.892Z,10.55
2022-09-21T21:31:12.036Z,10.52
2022-09-21T21:33:14.975Z,10.50
2022-09-21T21:35:18.462Z,10.50
2022-09-21T21:37:23.787Z,10.51
2022-09-21T21:39:26.735Z,10.49
2022-09-21T21:41:31.122Z,10.50
2022-09-21T21:43:34.495Z,10.49
2022-09-21T21:45:39.864Z,10.46
2022-09-21T21:47:42.869Z,10.43
2022-09-21T21:49:45.870Z,10.41
2022-09-21T21:51:50.100Z,10.39
2022-09-21T21:53:53.040Z,10.35
2022-09-21T21:56:03.755Z,10.34
2022-09-21T21:58:06.682Z,10.29
2022-09-21T22:00:10.691Z,10.25
2022-09-21T22:02:15.347Z,10.19
2022-09-21T22:04:18.642Z,10.16
2022-09-21T22:06:22.240Z,10.11
2022-09-21T22:08:28.355Z,10.07
2022-09-21T22:10:31.379Z,10.07
2022-09-21T22:12:34.451Z,10.04
2022-09-21T22:14:37.555Z,9.99
2022-09-21T22:16:40.699Z,9.95
2022-09-21T22:18:45.403Z,9.91
2022-09-21T22:20:48.492Z,9.91
2022-09-21T22:22:51.453Z,9.88
2022-09-21T22:24:54.733Z,9.81
2022-09-21T22:26:57.707Z,9.71
2022-09-21T22:29:02.187Z,9.63
2022-09-21T22:31:09.574Z,9.61
2022-09-21T22:33:12.636Z,9.60
2022-09-21T22:35:17.243Z,9.57
2022-09-21T22:37:20.203Z,9.53
2022-09-21T22:39:23.179Z,9.50
2022-09-21T22:41:27.672Z,9.51
2022-09-21T22:43:30.771Z,9.50
2022-09-21T22:45:33.743Z,9.48
2022-09-21T22:47:36.730Z,9.41
2022-09-21T22:49:39.712Z,9.37
2022-09-21T22:51:44.009Z,9.36
2022-09-21T22:53:47.817Z,9.35
2022-09-21T22:56:02.095Z,9.27
2022-09-21T22:58:05.018Z,9.24
2022-09-21T23:00:09.351Z,9.24
2022-09-21T23:02:12.274Z,9.24
2022-09-21T23:04:15.408Z,9.21
2022-09-21T23:06:20.096Z,9.19
2022-09-21T23:08:24.434Z,9.14
2022-09-21T23:10:28.840Z,9.11
2022-09-21T23:12:31.788Z,9.09
2022-09-21T23:14:34.824Z,9.06
2022-09-21T23:16:38.091Z,9.07
2022-09-21T23:18:41.444Z,9.04
2022-09-21T23:20:44.365Z,9.03
2022-09-21T23:22:47.309Z,9.03
2022-09-21T23:24:51.622Z,9.02
2022-09-21T23:26:54.579Z,8.98
2022-09-21T23:28:58.631Z,8.99
2022-09-21T23:31:03.228Z,8.97
2022-09-21T23:33:06.174Z,8.96
2022-09-21T23:35:09.404Z,8.93
2022-09-21T23:37:12.388Z,8.91
2022-09-21T23:39:16.203Z,8.92
2022-09-21T23:41:22.078Z,8.91
2022-09-21T23:43:24.983Z,8.89
2022-09-21T23:45:27.861Z,8.86
2022-09-21T23:47:30.769Z,8.82
2022-09-21T23:49:33.725Z,8.79
2022-09-21T23:51:36.822Z,8.79
2022-09-21T23:53:40.618Z,8.79
2022-09-21T23:55:43.512Z,8.76
2022-09-21T23:57:47.765Z,8.77
2022-09-21T23:59:52.628Z,8.77
